Sedona, AZ (86336)

11:58 AM MST on April 25, 2017 (GMT -0700)
Northview | | Change Station
Active Advisory: Wind Advisory

Elev 4396 ft 34.86 °N, 111.79 °W | Updated 4 seconds ago

Scattered Clouds
Scattered Clouds
72.9 °F
Feels Like 74 °F
N
15.9
Wind Variable Wind from South
Gusts 19.7 mph

Today
High -- | Low -- °F
--% Chance of Precip.
Yesterday
High -- | Low -- °F
Precip. -- in
Pressure 29.76 in
Visibility 10.0 miles
Clouds Scattered Clouds 8000 ft
Heat Index 74 °F
Dew Point 21 °F
Humidity 14%
Rainfall 0.00 in
Snow Depth Not available.
5:42 AM 7:07 PM
Waning Crescent, 1% visible
METAR KSEZ 251835Z AUTO 23011G27KT 10SM SCT080 20/M03 A2976 RMK AO2 LTG DSNT NE
Pressure 29.76 in
Visibility 10.0 miles
Clouds Scattered Clouds 8000 ft
Heat Index 74 °F
Dew Point 21 °F
Humidity 14%
Rainfall 0.00 in
Snow Depth Not available.
5:42 AM 7:07 PM
Waning Crescent, 1% visible
METAR KSEZ 251835Z AUTO 23011G27KT 10SM SCT080 20/M03 A2976 RMK AO2 LTG DSNT NE

Get Your Daily Forecast Email!

Thanks for signing up!

Be on the lookout for a verification email in your inbox.

You'll start receiving severe weather alerts in your inbox..

×

10-Day Weather Forecast

Almanac

Astronomy

Apr. 25, 2017 Rise Set
Actual Time
Civil Twilight
Nautical Twilight
Astronomical Twilight
Moon
Length of Visible Light
Length of Day
Tomorrow will be .
, % of the Moon is Illuminated

Today's Extremes

State Highs State Lows

Community

WunderPhotos

WunderBlog® & News

Nearby

Air Quality

  Air Quality AQ Index Pollutant
Not available.

Snow Depth

Station Depth Elevation

Earthquake Activity

City Distance Mag. Time & Date
Minimum magnitude displayed is 2.5.

Coastal Water Temperatures

Place Temperature

Stations

Nearby Weather Stations

Station Location Temp. Windchill Dew Point Humidity Wind Precip. Elev Updated Type
                   

Watches & Warnings

Wind Advisory
Issued: 10:39 AM MDT Apr. 25, 2017 – National Weather Service

... Wind Advisory remains in effect until 8 PM MST this evening...

* timing... gusty west to northwest winds will continue into the
evening.

* Winds... west to northwest winds 20 to 30 mph with gusts to 45 mph.


* Impacts... winds this strong can make driving difficult...
especially for high profile vehicles. Consider securing loose
belongings on your property.

Precautionary/preparedness actions...

A Wind Advisory means that sustained winds of 30 to 39 mph... or
gusts from 40 to 57 mph... are expected. Additional weather
information is on the web at www.Weather.Gov/Flagstaff.